Time;durP1;ratioP1;P1;durP2;ratioP2;P2;SDS_P1;SDS_P2;PMS_P1;PMS_P2;Temp;Humidity;BMP_temperature;BMP_pressure;BME280_temperature;BME280_humidity;BME280_pressure;Samples;Min_cycle;Max_cycle;Signal;HPM_P1;HPM_P2
2023/08/16 00:01:52;;;;;;;11.13;10.32;;;;;;;21.93;100.00;99494.34;6039514;23;20164;-78
2023/08/16 00:04:20;;;;;;;10.50;9.70;;;;;;;21.92;100.00;99503.63;6039076;23;20242;-77
2023/08/16 00:06:49;;;;;;;10.43;9.73;;;;;;;21.89;100.00;99506.91;6039606;23;20271;-78
2023/08/16 00:09:17;;;;;;;9.77;9.13;;;;;;;21.84;100.00;99498.81;6013944;23;20602;-77
2023/08/16 00:11:45;;;;;;;10.98;10.07;;;;;;;21.89;100.00;99500.66;6038970;23;20197;-77
2023/08/16 00:14:13;;;;;;;11.00;10.10;;;;;;;21.81;100.00;99498.59;6039399;23;20559;-77
2023/08/16 00:16:41;;;;;;;11.52;10.52;;;;;;;21.73;100.00;99505.56;6039234;23;20507;-77
2023/08/16 00:19:08;;;;;;;10.45;9.68;;;;;;;21.72;100.00;99500.38;6039005;23;20200;-78
2023/08/16 00:21:36;;;;;;;10.98;9.95;;;;;;;21.71;100.00;99499.56;6038965;23;20169;-77
2023/08/16 00:24:05;;;;;;;11.35;10.55;;;;;;;21.64;100.00;99501.88;6038991;23;20498;-77
2023/08/16 00:26:32;;;;;;;11.10;10.25;;;;;;;21.61;100.00;99502.44;6038860;23;20185;-76
2023/08/16 00:29:00;;;;;;;11.30;10.40;;;;;;;21.57;100.00;99508.78;6039430;23;20234;-77
2023/08/16 00:31:28;;;;;;;11.45;10.63;;;;;;;21.55;100.00;99498.19;6013750;23;20612;-77
2023/08/16 00:33:56;;;;;;;10.80;10.10;;;;;;;21.53;100.00;99494.94;6039234;23;20245;-77
2023/08/16 00:36:23;;;;;;;10.88;10.05;;;;;;;21.41;100.00;99486.41;6039375;23;20175;-76
2023/08/16 00:38:51;;;;;;;11.38;10.57;;;;;;;21.38;100.00;99485.06;6038881;23;20190;-76
2023/08/16 00:41:19;;;;;;;11.75;10.95;;;;;;;21.35;100.00;99484.84;6039129;23;20170;-78
2023/08/16 00:43:48;;;;;;;11.60;10.80;;;;;;;21.33;100.00;99481.59;6013917;23;20242;-78
2023/08/16 00:46:17;;;;;;;11.88;10.98;;;;;;;21.34;100.00;99485.94;6039026;23;20578;-77
2023/08/16 00:48:45;;;;;;;11.75;10.85;;;;;;;21.34;100.00;99485.94;5991114;23;20178;-77
2023/08/16 00:51:13;;;;;;;12.43;11.45;;;;;;;21.29;100.00;99481.38;6038905;23;20168;-76
2023/08/16 00:53:42;;;;;;;12.43;11.50;;;;;;;21.28;100.00;99487.09;6014115;23;20173;-78
2023/08/16 00:56:14;;;;;;;11.95;11.15;;;;;;;21.28;100.00;99482.47;6013837;23;20170;-77
2023/08/16 00:58:42;;;;;;;11.23;10.52;;;;;;;21.17;100.00;99480.19;6013521;23;20246;-77
2023/08/16 01:01:11;;;;;;;11.05;10.18;;;;;;;21.11;100.00;99479.41;5990246;23;20177;-78
2023/08/16 01:03:39;;;;;;;12.68;11.55;;;;;;;21.06;100.00;99477.56;6039044;23;20175;-78
2023/08/16 01:06:07;;;;;;;11.52;10.55;;;;;;;21.01;100.00;99477.63;6013931;23;20189;-78
2023/08/16 01:08:34;;;;;;;11.38;10.57;;;;;;;20.99;100.00;99479.03;6039107;23;20250;-77
2023/08/16 01:11:12;;;;;;;12.15;11.15;;;;;;;20.90;100.00;99481.56;6038747;23;20294;-78
2023/08/16 01:13:50;;;;;;;12.20;11.35;;;;;;;20.85;100.00;99472.66;5990547;23;20285;-77
2023/08/16 01:16:20;;;;;;;12.07;11.18;;;;;;;20.82;100.00;99478.66;5991043;23;20598;-77
2023/08/16 01:18:50;;;;;;;11.52;10.63;;;;;;;20.78;100.00;99478.44;6038704;23;20183;-79
2023/08/16 01:21:19;;;;;;;12.35;11.15;;;;;;;20.78;100.00;99480.34;6013974;23;20263;-77
2023/08/16 01:24:05;;;;;;;11.68;10.77;;;;;;;20.70;100.00;99481.81;6038746;23;20215;-77
2023/08/16 01:26:38;;;;;;;11.75;10.95;;;;;;;20.68;100.00;99478.56;6038882;23;20177;-77
2023/08/16 01:29:06;;;;;;;12.18;11.10;;;;;;;20.70;100.00;99486.44;6038514;23;20174;-78
2023/08/16 01:31:35;;;;;;;11.93;10.95;;;;;;;20.69;100.00;99484.81;6013644;23;20197;-80
2023/08/16 01:34:04;;;;;;;12.65;11.65;;;;;;;20.63;100.00;99479.41;6038759;23;20176;-77
2023/08/16 01:36:32;;;;;;;11.95;10.95;;;;;;;20.57;100.00;99477.88;6038508;23;20628;-78
2023/08/16 01:39:00;;;;;;;12.60;11.63;;;;;;;20.56;100.00;99480.88;6038546;23;20182;-76
2023/08/16 01:41:31;;;;;;;12.68;11.65;;;;;;;20.45;100.00;99480.16;6013963;23;20526;-77
2023/08/16 01:43:59;;;;;;;12.20;11.15;;;;;;;20.42;100.00;99474.50;6013570;23;20190;-80
2023/08/16 01:46:27;;;;;;;12.00;11.10;;;;;;;20.41;100.00;99483.75;6013746;23;20177;-78
2023/08/16 01:48:57;;;;;;;12.25;11.35;;;;;;;20.33;100.00;99482.47;6014069;23;20159;-78
2023/08/16 01:51:25;;;;;;;13.23;12.23;;;;;;;20.25;100.00;99480.31;6013795;23;20190;-78
2023/08/16 01:53:53;;;;;;;12.52;11.45;;;;;;;20.20;100.00;99481.19;6013087;23;20178;-81
2023/08/16 01:56:21;;;;;;;12.55;11.65;;;;;;;20.19;100.00;99485.00;6038310;23;20253;-78
2023/08/16 01:58:49;;;;;;;13.07;12.07;;;;;;;20.15;100.00;99477.72;6012933;23;20170;-77
2023/08/16 02:01:17;;;;;;;12.20;11.20;;;;;;;20.13;100.00;99478.00;6012864;23;20208;-76
2023/08/16 02:03:45;;;;;;;13.02;12.05;;;;;;;20.04;100.00;99473.44;6038235;23;20250;-78
2023/08/16 02:06:14;;;;;;;12.20;11.40;;;;;;;20.00;100.00;99477.84;6012947;23;20177;-76
2023/08/16 02:08:41;;;;;;;13.02;12.13;;;;;;;19.99;100.00;99478.94;6038156;23;20612;-79
2023/08/16 02:11:09;;;;;;;12.80;11.80;;;;;;;19.93;100.00;99469.19;6037947;23;20281;-76
2023/08/16 02:13:38;;;;;;;13.05;11.95;;;;;;;19.91;100.00;99480.34;6013595;23;20254;-76
2023/08/16 02:16:06;;;;;;;12.45;11.55;;;;;;;19.81;100.00;99469.56;6038326;23;20547;-76
2023/08/16 02:18:34;;;;;;;12.35;11.45;;;;;;;19.77;100.00;99482.91;6013114;23;20174;-78
2023/08/16 02:21:01;;;;;;;13.63;12.50;;;;;;;19.72;100.00;99480.22;6012977;23;20582;-78
2023/08/16 02:23:29;;;;;;;13.55;12.30;;;;;;;19.67;100.00;99482.16;5989688;23;20256;-80
2023/08/16 02:25:57;;;;;;;13.23;12.32;;;;;;;19.65;100.00;99482.44;6013307;23;20189;-79
2023/08/16 02:28:25;;;;;;;12.93;11.95;;;;;;;19.57;100.00;99485.75;6012949;23;20170;-78
2023/08/16 02:30:53;;;;;;;13.63;12.55;;;;;;;19.51;100.00;99483.34;6038404;23;20564;-78
2023/08/16 02:33:20;;;;;;;13.20;12.30;;;;;;;19.48;100.00;99486.63;6037844;23;20202;-78
2023/08/16 02:35:47;;;;;;;13.10;12.20;;;;;;;19.46;100.00;99486.09;6038482;23;20184;-80
2023/08/16 02:38:17;;;;;;;12.68;11.77;;;;;;;19.42;100.00;99485.81;6038499;23;20558;-79
2023/08/16 02:40:45;;;;;;;13.02;12.02;;;;;;;19.36;100.00;99490.47;5990115;23;20193;-76
2023/08/16 02:43:12;;;;;;;14.00;13.00;;;;;;;19.31;100.00;99490.53;6037765;23;20237;-76
2023/08/16 02:45:41;;;;;;;13.15;12.15;;;;;;;19.29;100.00;99489.16;6038016;23;20192;-76
2023/08/16 02:48:08;;;;;;;12.98;11.98;;;;;;;19.29;100.00;99492.69;6012612;23;20183;-76
2023/08/16 02:50:36;;;;;;;13.30;12.30;;;;;;;19.28;100.00;99490.25;6037888;23;20197;-75
2023/08/16 02:53:04;;;;;;;13.40;12.37;;;;;;;19.26;100.00;99487.81;6038075;23;20173;-77
2023/08/16 02:55:32;;;;;;;13.33;12.43;;;;;;;19.25;100.00;99493.53;6012487;23;20184;-77
2023/08/16 02:57:59;;;;;;;13.13;12.03;;;;;;;19.25;100.00;99494.34;6037835;23;20532;-76
2023/08/16 03:00:26;;;;;;;13.52;12.43;;;;;;;19.18;100.00;99495.72;6037831;23;20545;-76
2023/08/16 03:02:57;;;;;;;13.73;12.53;;;;;;;19.18;100.00;99498.44;6012814;23;20175;-76
2023/08/16 03:05:25;;;;;;;13.90;12.90;;;;;;;19.15;100.00;99496.28;6037957;23;20172;-76
2023/08/16 03:07:52;;;;;;;13.80;12.80;;;;;;;19.11;100.00;99500.66;6037930;23;20180;-76
2023/08/16 03:10:21;;;;;;;14.10;13.10;;;;;;;19.05;100.00;99499.84;6012601;23;20206;-76
2023/08/16 03:12:49;;;;;;;14.60;13.60;;;;;;;19.04;100.00;99500.13;6037543;23;20182;-76
2023/08/16 03:15:17;;;;;;;13.63;12.63;;;;;;;19.05;100.00;99505.28;6037708;23;20175;-77
2023/08/16 03:17:46;;;;;;;14.50;13.40;;;;;;;19.06;100.00;99511.53;6038273;23;20170;-76
2023/08/16 03:20:13;;;;;;;14.50;13.40;;;;;;;19.00;100.00;99504.50;6012592;23;20279;-76
2023/08/16 03:22:41;;;;;;;15.03;13.93;;;;;;;18.95;100.00;99497.19;6012486;23;20254;-77
2023/08/16 03:25:09;;;;;;;14.33;13.27;;;;;;;18.95;100.00;99501.78;6014371;23;20171;-75
2023/08/16 03:27:37;;;;;;;14.57;13.37;;;;;;;18.91;100.00;99499.63;6014533;23;20184;-75
2023/08/16 03:30:07;;;;;;;13.63;12.63;;;;;;;18.89;100.00;99504.56;6014215;23;20229;-76
2023/08/16 03:32:35;;;;;;;14.43;13.03;;;;;;;18.88;100.00;99511.06;6009297;23;20207;-77
2023/08/16 03:35:03;;;;;;;14.50;13.40;;;;;;;18.88;100.00;99516.50;6011581;23;20174;-77
2023/08/16 03:37:32;;;;;;;15.17;13.90;;;;;;;18.86;100.00;99512.41;6009688;23;20180;-76
2023/08/16 03:40:00;;;;;;;13.80;12.70;;;;;;;18.79;100.00;99517.34;6010879;23;20192;-77
2023/08/16 03:42:27;;;;;;;14.87;13.77;;;;;;;18.79;100.00;99514.63;6011002;23;20266;-76
2023/08/16 03:44:56;;;;;;;14.53;13.43;;;;;;;18.75;100.00;99522.50;6011314;23;20183;-76
2023/08/16 03:47:23;;;;;;;15.40;14.20;;;;;;;18.71;100.00;99523.34;6010880;23;20170;-76
2023/08/16 03:49:54;;;;;;;15.40;14.40;;;;;;;18.64;100.00;99526.31;6011093;23;20166;-77
2023/08/16 03:52:24;;;;;;;14.90;13.90;;;;;;;18.64;100.00;99529.03;6010829;23;20560;-76
2023/08/16 03:54:52;;;;;;;14.63;13.53;;;;;;;18.60;100.00;99529.84;6009481;23;20179;-77
2023/08/16 03:57:21;;;;;;;14.87;13.77;;;;;;;18.61;100.00;99531.50;6010779;23;20196;-77
2023/08/16 03:59:52;;;;;;;14.07;13.07;;;;;;;18.68;100.00;99524.69;6009271;23;20206;-76
2023/08/16 04:02:21;;;;;;;14.87;13.77;;;;;;;18.75;100.00;99538.78;6010973;23;20179;-77
2023/08/16 04:04:56;;;;;;;14.63;13.53;;;;;;;18.83;100.00;99531.97;6009359;23;20180;-76
2023/08/16 04:07:24;;;;;;;14.23;13.23;;;;;;;18.91;100.00;99529.50;6011096;23;20178;-77
2023/08/16 04:09:52;;;;;;;15.27;14.17;;;;;;;18.99;100.00;99538.97;6010979;23;20233;-78
2023/08/16 04:12:19;;;;;;;15.23;14.13;;;;;;;19.03;100.00;99531.09;6010794;23;20521;-77
2023/08/16 04:14:47;;;;;;;14.40;13.30;;;;;;;19.11;100.00;99550.34;6010808;23;20220;-77
2023/08/16 04:17:15;;;;;;;14.83;13.73;;;;;;;19.16;100.00;99544.91;6009369;23;20267;-77
2023/08/16 04:19:43;;;;;;;14.87;13.67;;;;;;;19.18;100.00;99552.75;6010641;23;20632;-76
2023/08/16 04:22:10;;;;;;;14.97;13.70;;;;;;;19.26;100.00;99554.91;6010875;23;20244;-77
2023/08/16 04:24:38;;;;;;;14.80;13.53;;;;;;;19.31;100.00;99563.03;6009174;23;20202;-76
2023/08/16 04:27:07;;;;;;;15.07;13.87;;;;;;;19.37;100.00;99559.19;6010790;23;20172;-76
2023/08/16 04:29:34;;;;;;;14.07;13.03;;;;;;;19.42;100.00;99559.16;6011030;23;20175;-76
2023/08/16 04:32:05;;;;;;;14.70;13.50;;;;;;;19.51;100.00;99560.25;6005248;23;20294;-76
2023/08/16 04:34:33;;;;;;;14.00;13.00;;;;;;;19.51;100.00;99562.97;6010598;23;20169;-78
2023/08/16 04:37:00;;;;;;;14.60;13.50;;;;;;;19.58;100.00;99560.75;6010845;23;20169;-78
2023/08/16 04:39:28;;;;;;;14.90;13.83;;;;;;;19.71;100.00;99572.91;5985467;23;20171;-79
2023/08/16 04:41:56;;;;;;;14.18;13.18;;;;;;;19.89;100.00;99569.53;6010742;23;20170;-77
2023/08/16 04:44:24;;;;;;;15.13;14.03;;;;;;;20.10;100.00;99567.50;5985235;23;20221;-76
2023/08/16 04:46:52;;;;;;;15.47;14.20;;;;;;;20.26;100.00;99568.19;6010475;23;20172;-77
2023/08/16 04:49:20;;;;;;;14.35;13.25;;;;;;;20.42;100.00;99575.97;5985561;23;20178;-76
2023/08/16 04:51:48;;;;;;;14.50;13.40;;;;;;;20.63;100.00;99568.44;6010530;23;20182;-76
2023/08/16 04:54:15;;;;;;;14.48;13.32;;;;;;;20.84;100.00;99569.06;6010524;23;20253;-77
2023/08/16 04:56:43;;;;;;;13.45;12.45;;;;;;;21.01;100.00;99563.94;6010402;23;20184;-77
2023/08/16 04:59:11;;;;;;;13.90;12.80;;;;;;;21.20;100.00;99567.59;6010341;23;20615;-77
2023/08/16 05:01:39;;;;;;;13.50;12.48;;;;;;;21.36;100.00;99577.22;5985478;23;20201;-77
2023/08/16 05:04:08;;;;;;;13.82;12.88;;;;;;;21.56;100.00;99575.34;5985359;23;20700;-79
2023/08/16 05:06:37;;;;;;;12.63;11.73;;;;;;;21.76;100.00;99572.31;5985388;23;20196;-77
2023/08/16 05:09:04;;;;;;;13.27;12.27;;;;;;;22.08;100.00;99577.03;5985420;23;20178;-77
2023/08/16 05:11:32;;;;;;;12.90;12.00;;;;;;;22.38;100.00;99587.50;5985605;23;20179;-76
2023/08/16 05:14:00;;;;;;;13.50;12.40;;;;;;;22.68;100.00;99578.75;5985329;23;20184;-77
2023/08/16 05:16:28;;;;;;;13.07;12.07;;;;;;;22.91;100.00;99576.22;5986039;23;20523;-76
2023/08/16 05:18:57;;;;;;;12.32;11.50;;;;;;;23.17;100.00;99578.16;6010155;23;20259;-77
2023/08/16 05:21:27;;;;;;;12.75;11.85;;;;;;;23.36;100.00;99578.06;5985845;23;20205;-76
2023/08/16 05:23:54;;;;;;;13.02;12.13;;;;;;;23.55;100.00;99580.69;6010387;23;20512;-76
2023/08/16 05:26:23;;;;;;;12.23;11.43;;;;;;;23.81;100.00;99587.22;6010566;23;20502;-78
2023/08/16 05:28:52;;;;;;;12.40;11.40;;;;;;;24.03;100.00;99584.53;6010536;23;20174;-77
2023/08/16 05:31:20;;;;;;;11.88;10.98;;;;;;;24.18;100.00;99588.06;6010782;23;20177;-76
2023/08/16 05:33:47;;;;;;;12.43;11.35;;;;;;;24.29;100.00;99589.44;6038195;23;20227;-77
2023/08/16 05:36:16;;;;;;;12.63;11.48;;;;;;;24.23;100.00;99585.19;6038673;23;20202;-77
2023/08/16 05:38:43;;;;;;;12.07;11.05;;;;;;;24.19;100.00;99595.97;6038707;23;20224;-78
2023/08/16 05:41:11;;;;;;;12.00;11.10;;;;;;;24.15;100.00;99592.19;6038322;23;20279;-78
2023/08/16 05:43:38;;;;;;;12.40;11.43;;;;;;;24.11;100.00;99588.47;6038283;23;20178;-77
2023/08/16 05:46:05;;;;;;;12.35;11.25;;;;;;;24.02;100.00;99588.41;6037936;23;20187;-77
2023/08/16 05:48:32;;;;;;;13.18;11.90;;;;;;;23.99;100.00;99593.66;6038312;23;20626;-77
2023/08/16 05:51:01;;;;;;;12.95;11.52;;;;;;;23.98;100.00;99595.59;6038230;23;20181;-78
2023/08/16 05:53:28;;;;;;;12.73;11.55;;;;;;;24.02;100.00;99595.78;6038337;23;20190;-78
2023/08/16 05:55:55;;;;;;;13.13;12.10;;;;;;;24.09;100.00;99596.97;6038462;23;20172;-77
2023/08/16 05:58:23;;;;;;;13.20;12.23;;;;;;;24.19;100.00;99600.63;6038220;23;20199;-77
2023/08/16 06:00:52;;;;;;;13.30;12.13;;;;;;;24.29;100.00;99603.94;6038443;23;20234;-80
2023/08/16 06:03:20;;;;;;;12.55;11.50;;;;;;;24.31;100.00;99606.38;6013940;23;20192;-77
2023/08/16 06:05:48;;;;;;;12.68;11.68;;;;;;;24.30;100.00;99599.28;6037919;23;20205;-80
2023/08/16 06:08:16;;;;;;;12.73;11.80;;;;;;;24.23;100.00;99602.44;6038197;23;20646;-79
2023/08/16 06:10:44;;;;;;;13.18;12.07;;;;;;;24.20;100.00;99594.84;6038198;23;20166;-76
2023/08/16 06:13:12;;;;;;;12.20;11.25;;;;;;;24.31;100.00;99598.94;6038523;23;20187;-77
2023/08/16 06:15:39;;;;;;;12.45;11.45;;;;;;;24.33;100.00;99595.91;6037971;23;20551;-76
2023/08/16 06:18:06;;;;;;;13.75;12.75;;;;;;;24.35;100.00;99596.41;6038071;23;20577;-77
2023/08/16 06:20:34;;;;;;;12.77;11.77;;;;;;;24.33;100.00;99602.19;6037636;23;20530;-76
2023/08/16 06:23:03;;;;;;;12.65;11.48;;;;;;;24.27;100.00;99594.41;6037934;23;20165;-77
2023/08/16 06:25:30;;;;;;;12.43;11.48;;;;;;;24.22;100.00;99592.59;6037602;23;20179;-77
2023/08/16 06:28:02;;;;;;;12.85;11.95;;;;;;;24.23;100.00;99598.88;6037931;23;20165;-77
2023/08/16 06:30:29;;;;;;;12.93;11.82;;;;;;;24.26;100.00;99599.09;6013112;23;20169;-79
2023/08/16 06:32:57;;;;;;;13.10;12.10;;;;;;;24.27;100.00;99594.41;5994273;23;20550;-76
2023/08/16 06:35:25;;;;;;;13.05;11.95;;;;;;;24.36;100.00;99598.81;6009484;23;20242;-76
2023/08/16 06:37:53;;;;;;;12.43;11.43;;;;;;;24.50;100.00;99593.28;6009620;23;20201;-75
2023/08/16 06:40:21;;;;;;;12.57;11.43;;;;;;;24.60;100.00;99594.94;6009560;23;20200;-75
2023/08/16 06:42:49;;;;;;;12.77;11.60;;;;;;;24.65;100.00;99592.09;6009776;23;20568;-75
2023/08/16 06:45:16;;;;;;;13.43;12.15;;;;;;;24.66;100.00;99596.44;6009374;23;20190;-76
2023/08/16 06:47:47;;;;;;;13.00;11.90;;;;;;;24.63;100.00;99591.59;6009371;23;20587;-78
2023/08/16 06:50:15;;;;;;;12.93;11.77;;;;;;;24.70;100.00;99575.53;6009186;23;20182;-77
2023/08/16 06:52:43;;;;;;;12.40;11.45;;;;;;;24.82;100.00;99581.25;6009381;23;20619;-75
2023/08/16 06:55:10;;;;;;;12.23;11.18;;;;;;;24.72;100.00;99587.00;6009287;23;20167;-74
2023/08/16 06:57:38;;;;;;;12.15;11.10;;;;;;;24.62;100.00;99584.50;6008628;23;20190;-78
2023/08/16 07:00:08;;;;;;;12.18;11.00;;;;;;;24.55;100.00;99588.47;6009333;23;20166;-76
2023/08/16 07:02:36;;;;;;;11.50;10.60;;;;;;;24.70;100.00;99584.56;6009498;23;20707;-75
2023/08/16 07:05:04;;;;;;;11.73;10.73;;;;;;;24.83;100.00;99577.34;6008720;23;20169;-77
2023/08/16 07:07:32;;;;;;;11.73;10.73;;;;;;;25.02;100.00;99588.13;6009465;23;20228;-75
2023/08/16 07:09:59;;;;;;;11.70;10.80;;;;;;;25.14;100.00;99583.69;6009439;23;20245;-78
2023/08/16 07:12:27;;;;;;;11.98;10.93;;;;;;;25.29;100.00;99587.94;6009680;23;20192;-75
2023/08/16 07:14:54;;;;;;;11.23;10.20;;;;;;;25.44;100.00;99577.31;6009371;23;20170;-75
2023/08/16 07:17:22;;;;;;;11.02;9.93;;;;;;;25.49;100.00;99581.84;6008828;23;20513;-77
2023/08/16 07:19:52;;;;;;;10.93;9.95;;;;;;;25.55;100.00;99585.28;6009318;23;20213;-77
2023/08/16 07:22:20;;;;;;;10.38;9.57;;;;;;;25.57;100.00;99597.53;6009462;23;20265;-76
2023/08/16 07:24:48;;;;;;;10.00;9.20;;;;;;;25.74;100.00;99594.84;6009376;23;20177;-77
2023/08/16 07:27:16;;;;;;;10.38;9.35;;;;;;;25.90;100.00;99589.69;6008068;23;20517;-78
2023/08/16 07:29:43;;;;;;;9.63;8.88;;;;;;;26.08;100.00;99596.78;6009058;23;20167;-77
2023/08/16 07:32:11;;;;;;;8.95;8.27;;;;;;;26.06;100.00;99590.84;6018808;23;20190;-75
2023/08/16 07:34:39;;;;;;;8.48;7.78;;;;;;;26.20;100.00;99585.19;6037548;23;20166;-79
2023/08/16 07:37:06;;;;;;;9.20;8.38;;;;;;;26.34;100.00;99598.78;6037695;23;20166;-80
2023/08/16 07:39:33;;;;;;;9.93;8.40;;;;;;;26.46;100.00;99591.47;6038898;23;20166;-87
2023/08/16 07:42:01;;;;;;;8.35;7.65;;;;;;;26.78;100.00;99603.06;6014051;23;20277;-85
2023/08/16 07:44:29;;;;;;;8.63;7.90;;;;;;;27.02;100.00;99608.84;5991933;23;20246;-82
2023/08/16 07:46:57;;;;;;;8.75;8.05;;;;;;;26.86;100.00;99607.75;6014934;23;20166;-84
2023/08/16 07:49:25;;;;;;;8.10;7.50;;;;;;;26.94;100.00;99606.94;6012781;23;20174;-84
2023/08/16 07:51:55;;;;;;;7.93;7.22;;;;;;;27.24;100.00;99616.84;5966905;23;20180;-86
2023/08/16 07:54:24;;;;;;;9.10;8.30;;;;;;;27.48;100.00;99614.31;5990115;23;20197;-85
2023/08/16 07:56:52;;;;;;;8.80;8.18;;;;;;;27.52;100.00;99614.50;5988950;23;20631;-84
2023/08/16 07:59:20;;;;;;;24.40;11.40;;;;;;;27.66;100.00;99609.56;5989897;23;20222;-85
2023/08/16 08:01:47;;;;;;;10.10;8.52;;;;;;;27.67;100.00;99621.38;5968322;23;20186;-87
2023/08/16 08:04:15;;;;;;;17.80;9.23;;;;;;;27.50;100.00;99611.25;6014419;23;20222;-85
2023/08/16 08:06:42;;;;;;;8.20;7.50;;;;;;;27.55;100.00;99602.81;5991547;23;20170;-82
2023/08/16 09:34:20;;;;;;;7.30;6.70;;;;;;;28.64;100.00;99603.44;5113704;27;20538;-78
2023/08/16 09:37:05;;;;;;;7.50;6.80;;;;;;;28.63;100.00;99604.56;5093921;28;20571;-78
2023/08/16 09:39:32;;;;;;;7.40;6.60;;;;;;;28.66;100.00;99601.13;5108170;28;20199;-79
2023/08/16 09:42:01;;;;;;;6.95;6.45;;;;;;;28.80;100.00;99598.09;5113768;28;20199;-78
2023/08/16 09:44:29;;;;;;;6.63;6.10;;;;;;;28.99;100.00;99589.28;5108931;28;20207;-78
2023/08/16 09:46:57;;;;;;;6.85;6.25;;;;;;;29.16;100.00;99580.81;5107137;28;20235;-79
2023/08/16 09:49:27;;;;;;;7.13;6.47;;;;;;;29.35;100.00;99586.56;5109096;28;20281;-78
2023/08/16 09:51:54;;;;;;;9.52;6.72;;;;;;;29.42;100.00;99592.34;5106775;28;20200;-79
2023/08/16 09:54:25;;;;;;;7.07;6.47;;;;;;;29.49;100.00;99592.56;5118618;27;20272;-80
2023/08/16 09:56:54;;;;;;;7.68;6.93;;;;;;;29.55;100.00;99587.59;5117374;27;20244;-78
2023/08/16 09:59:25;;;;;;;7.57;6.88;;;;;;;29.71;100.00;99591.28;5109014;27;20199;-78
2023/08/16 10:01:56;;;;;;;7.68;7.00;;;;;;;29.56;100.00;99581.75;5111274;28;20198;-78
2023/08/16 10:04:41;;;;;;;7.93;7.20;;;;;;;29.67;100.00;99585.66;5109291;28;20200;-78
2023/08/16 10:07:11;;;;;;;7.50;6.78;;;;;;;29.68;100.00;99573.44;5108905;28;20520;-78
2023/08/16 10:09:43;;;;;;;7.78;7.05;;;;;;;30.03;100.00;99581.22;5107286;28;20200;-78
2023/08/16 10:12:11;;;;;;;8.10;7.18;;;;;;;29.97;100.00;99577.91;5108649;28;20245;-78
2023/08/16 10:14:38;;;;;;;7.15;6.63;;;;;;;29.86;100.00;99576.75;5103906;28;20192;-79
2023/08/16 10:17:08;;;;;;;7.82;6.70;;;;;;;30.00;100.00;99576.41;5108373;28;20270;-78
2023/08/16 10:19:39;;;;;;;7.35;6.75;;;;;;;30.30;100.00;99574.91;5107450;28;20648;-79
2023/08/16 10:22:21;;;;;;;7.88;7.22;;;;;;;30.45;100.00;99574.19;5105684;28;20252;-78
2023/08/16 10:24:53;;;;;;;7.45;6.75;;;;;;;30.63;100.00;99568.31;5109168;28;20192;-79
2023/08/16 10:27:21;;;;;;;7.68;7.00;;;;;;;30.53;100.00;99570.44;5111161;28;20223;-78
2023/08/16 10:29:52;;;;;;;8.25;7.40;;;;;;;30.62;100.00;99564.75;5107572;28;20563;-79
2023/08/16 10:32:24;;;;;;;9.80;8.95;;;;;;;30.85;100.00;99573.25;5099756;28;20227;-78
2023/08/16 10:34:56;;;;;;;10.05;8.98;;;;;;;30.95;100.00;99573.53;5106630;28;20191;-78
2023/08/16 10:37:25;;;;;;;7.68;6.63;;;;;;;30.74;100.00;99563.91;5108688;28;20196;-78
2023/08/16 10:39:54;;;;;;;8.52;7.72;;;;;;;30.67;100.00;99567.25;5105816;28;20192;-79
2023/08/16 10:42:26;;;;;;;7.82;7.13;;;;;;;30.21;100.00;99556.88;5108319;28;20279;-79
2023/08/16 10:44:54;;;;;;;8.43;7.70;;;;;;;30.53;100.00;99559.41;5102499;28;20611;-79
2023/08/16 10:47:28;;;;;;;9.23;7.10;;;;;;;30.31;100.00;99556.38;5097004;28;20267;-79
2023/08/16 10:49:56;;;;;;;8.25;7.65;;;;;;;30.21;100.00;99554.91;5099857;28;20225;-79
2023/08/16 10:52:28;;;;;;;7.55;6.95;;;;;;;30.28;100.00;99551.56;5098049;28;20199;-79
2023/08/16 10:54:55;;;;;;;7.82;7.00;;;;;;;30.39;100.00;99549.88;5105689;28;20191;-79
2023/08/16 10:57:25;;;;;;;7.93;7.30;;;;;;;30.38;100.00;99549.06;5107879;28;20196;-78
2023/08/16 11:00:08;;;;;;;7.63;7.03;;;;;;;30.43;100.00;99536.94;5093995;28;20207;-78
2023/08/16 11:02:37;;;;;;;7.32;6.70;;;;;;;30.66;100.00;99542.72;5100764;28;20260;-78
2023/08/16 11:05:07;;;;;;;7.38;6.68;;;;;;;30.69;100.00;99553.09;5093715;28;20196;-78
2023/08/16 11:07:36;;;;;;;7.38;6.80;;;;;;;30.63;100.00;99546.22;5092960;28;20200;-78
2023/08/16 11:10:04;;;;;;;9.05;8.15;;;;;;;30.81;100.00;99544.72;5092579;28;20204;-79
2023/08/16 11:12:32;;;;;;;7.00;6.40;;;;;;;30.90;100.00;99543.38;5091309;28;20257;-78
2023/08/16 11:14:59;;;;;;;7.20;6.55;;;;;;;30.91;100.00;99544.19;5089113;28;20224;-79
2023/08/16 11:17:26;;;;;;;7.22;6.70;;;;;;;31.07;100.00;99542.25;5090854;28;20200;-78
2023/08/16 11:19:54;;;;;;;8.13;6.55;;;;;;;31.09;100.00;99537.16;5091267;28;20207;-79
2023/08/16 11:22:24;;;;;;;6.65;6.07;;;;;;;31.46;100.00;99540.41;5092484;28;20712;-78
2023/08/16 11:24:59;;;;;;;7.15;6.50;;;;;;;31.64;96.95;99536.09;5091972;28;20220;-79
2023/08/16 11:27:28;;;;;;;6.68;6.18;;;;;;;31.64;94.75;99538.88;5090702;28;20621;-80
2023/08/16 11:29:59;;;;;;;7.00;6.28;;;;;;;31.95;91.80;99534.38;5092502;28;20201;-80
2023/08/16 11:32:35;;;;;;;6.43;5.85;;;;;;;31.89;90.43;99528.34;5094567;28;20228;-79
2023/08/16 11:35:11;;;;;;;6.53;6.03;;;;;;;31.91;97.09;99528.78;5092762;28;20654;-79
2023/08/16 11:37:41;;;;;;;6.70;6.20;;;;;;;31.63;98.66;99522.63;5090311;28;20196;-79
2023/08/16 11:40:12;;;;;;;7.57;5.72;;;;;;;31.77;94.95;99529.28;5087767;28;20720;-79
2023/08/16 11:42:40;;;;;;;6.63;5.97;;;;;;;31.83;94.30;99518.69;5088303;28;20207;-81
2023/08/16 11:45:21;;;;;;;6.40;5.80;;;;;;;31.88;89.26;99513.69;5090840;28;20213;-81
2023/08/16 11:47:52;;;;;;;8.52;5.90;;;;;;;31.86;88.82;99513.25;5093461;28;20200;-79
2023/08/16 11:50:22;;;;;;;9.30;5.88;;;;;;;31.80;94.61;99506.38;5092695;28;20197;-81
2023/08/16 11:53:00;;;;;;;6.63;5.93;;;;;;;31.61;95.30;99500.03;5094263;28;20679;-79
2023/08/16 11:55:29;;;;;;;7.03;6.40;;;;;;;31.59;94.29;99491.28;5090707;28;20195;-78
2023/08/16 11:58:10;;;;;;;6.25;5.47;;;;;;;31.69;89.78;99485.16;5091238;28;20188;-79
2023/08/16 12:00:38;;;;;;;6.30;5.70;;;;;;;31.80;86.24;99487.00;5085823;28;20193;-78
2023/08/16 12:03:08;;;;;;;6.78;6.18;;;;;;;32.27;87.70;99481.22;5090001;28;20710;-79
2023/08/16 12:05:38;;;;;;;5.65;5.15;;;;;;;32.32;83.05;99477.34;5097094;28;20287;-79
2023/08/16 12:08:07;;;;;;;7.35;5.38;;;;;;;32.25;80.37;99475.25;5092894;28;20560;-79
2023/08/16 12:10:35;;;;;;;6.13;5.63;;;;;;;32.15;80.45;99475.84;5092940;28;20196;-80
2023/08/16 12:13:15;;;;;;;5.53;5.05;;;;;;;32.21;79.52;99468.84;5093624;28;20690;-79
2023/08/16 12:15:42;;;;;;;6.22;5.60;;;;;;;32.22;78.07;99453.81;5097042;28;20200;-80
2023/08/16 12:18:09;;;;;;;6.25;5.68;;;;;;;32.40;79.86;99456.91;5092617;28;20184;-80
2023/08/16 12:20:36;;;;;;;5.72;5.13;;;;;;;32.65;76.57;99449.84;5091570;28;20203;-80
2023/08/16 12:23:03;;;;;;;5.97;5.47;;;;;;;32.68;78.38;99448.31;5091524;28;20201;-81
2023/08/16 12:25:31;;;;;;;5.75;5.15;;;;;;;32.72;77.00;99449.16;5092777;28;20199;-80
2023/08/16 12:27:58;;;;;;;8.02;5.28;;;;;;;32.84;72.99;99448.97;5094975;28;20657;-81
2023/08/16 12:30:28;;;;;;;5.80;5.32;;;;;;;33.04;73.18;99446.88;5097705;28;20224;-82
2023/08/16 12:32:55;;;;;;;5.88;5.35;;;;;;;32.94;70.19;99447.53;5086362;28;20229;-81
2023/08/16 12:35:22;;;;;;;5.63;4.80;;;;;;;32.86;72.75;99443.84;5092166;28;20219;-79
2023/08/16 12:37:50;;;;;;;5.70;5.20;;;;;;;32.91;71.46;99445.50;5092692;28;20266;-81
2023/08/16 12:40:28;;;;;;;6.05;5.40;;;;;;;32.98;71.40;99440.88;5092719;28;20188;-81
2023/08/16 12:42:55;;;;;;;6.07;5.47;;;;;;;33.05;72.91;99435.41;5096504;28;20213;-81
2023/08/16 12:45:23;;;;;;;5.47;4.97;;;;;;;33.29;74.83;99433.41;5093604;28;20211;-80
2023/08/16 12:47:50;;;;;;;5.65;5.03;;;;;;;33.19;72.84;99430.09;5092222;28;20196;-80
2023/08/16 12:50:18;;;;;;;5.97;5.28;;;;;;;33.11;74.60;99438.66;5091793;28;20207;-79